Darksville, Missouri
Current Conditions -  °F | °C
As of 6:35 PM on Friday 19 Dec 2014 (Local Time) from KVER Reporting Station
Overcast Overcast  
Wind Chill: 37°   Ceiling: 1200
Heat Index: 37°   Visibility: 10mi
Dew Point: 35°   Wind: 3mph
Humidity: 93%   Direction: 110°ESE
Pressure: 30.23"   Gusts: NA
Location:  39.4578°N, 92.5864°W
Report Text: KVER 200035Z AUTO 11003KT 10SM OVC012 03/02 A3023 RMK AO2 T00250015
Loading
Personal Weather Stations






























Interactive Weather Map New forecast layout! Learn more

10-Day Weather Forecast

Advertisements
Track Severe Weather on mobile